sensor_id;sensor_type;location;lat;lon;timestamp;pressure;altitude;pressure_sealevel;temperature;humidity
33795;BME280;51430;52.242;21.118;2023-08-12T00:01:57;100964.77;;;15.28;76.24
33795;BME280;51430;52.242;21.118;2023-08-12T00:04:25;100966.39;;;15.20;76.72
33795;BME280;51430;52.242;21.118;2023-08-12T00:06:52;100970.82;;;15.18;76.90
33795;BME280;51430;52.242;21.118;2023-08-12T00:09:20;100969.91;;;15.14;77.35
33795;BME280;51430;52.242;21.118;2023-08-12T00:11:49;100970.48;;;15.09;77.58
33795;BME280;51430;52.242;21.118;2023-08-12T00:14:17;100967.28;;;15.04;77.86
33795;BME280;51430;52.242;21.118;2023-08-12T00:16:45;100967.65;;;15.03;78.01
33795;BME280;51430;52.242;21.118;2023-08-12T00:19:12;100965.63;;;15.00;77.96
33795;BME280;51430;52.242;21.118;2023-08-12T00:21:41;100968.00;;;14.97;78.18
33795;BME280;51430;52.242;21.118;2023-08-12T00:24:09;100964.97;;;14.93;78.56
33795;BME280;51430;52.242;21.118;2023-08-12T00:26:36;100967.40;;;14.92;78.65
33795;BME280;51430;52.242;21.118;2023-08-12T00:29:04;100964.58;;;14.92;79.04
33795;BME280;51430;52.242;21.118;2023-08-12T00:31:34;100962.56;;;14.89;79.19
33795;BME280;51430;52.242;21.118;2023-08-12T00:34:02;100964.81;;;14.87;79.43
33795;BME280;51430;52.242;21.118;2023-08-12T00:36:30;100964.19;;;14.84;79.39
33795;BME280;51430;52.242;21.118;2023-08-12T00:38:58;100964.52;;;14.80;79.53
33795;BME280;51430;52.242;21.118;2023-08-12T00:41:25;100963.02;;;14.75;79.84
33795;BME280;51430;52.242;21.118;2023-08-12T00:43:53;100961.79;;;14.71;80.00
33795;BME280;51430;52.242;21.118;2023-08-12T00:46:22;100962.95;;;14.68;80.41
33795;BME280;51430;52.242;21.118;2023-08-12T00:48:51;100963.76;;;14.67;80.64
33795;BME280;51430;52.242;21.118;2023-08-12T00:51:19;100960.05;;;14.65;80.73
33795;BME280;51430;52.242;21.118;2023-08-12T00:53:47;100961.60;;;14.63;80.67
33795;BME280;51430;52.242;21.118;2023-08-12T00:56:16;100957.15;;;14.62;80.77
33795;BME280;51430;52.242;21.118;2023-08-12T00:58:45;100958.00;;;14.58;81.09
33795;BME280;51430;52.242;21.118;2023-08-12T01:01:13;100955.95;;;14.57;81.32
33795;BME280;51430;52.242;21.118;2023-08-12T01:03:41;100957.20;;;14.53;81.40
33795;BME280;51430;52.242;21.118;2023-08-12T01:06:09;100955.02;;;14.49;81.82
33795;BME280;51430;52.242;21.118;2023-08-12T01:08:37;100957.38;;;14.46;81.85
33795;BME280;51430;52.242;21.118;2023-08-12T01:11:21;100954.52;;;14.45;82.02
33795;BME280;51430;52.242;21.118;2023-08-12T01:14:15;100952.13;;;14.38;82.47
33795;BME280;51430;52.242;21.118;2023-08-12T01:16:47;100951.98;;;14.29;83.06
33795;BME280;51430;52.242;21.118;2023-08-12T01:19:43;100952.67;;;14.25;83.75
33795;BME280;51430;52.242;21.118;2023-08-12T01:22:11;100953.96;;;14.24;84.14
33795;BME280;51430;52.242;21.118;2023-08-12T01:24:43;100953.83;;;14.24;84.33
33795;BME280;51430;52.242;21.118;2023-08-12T01:27:13;100953.13;;;14.21;84.25
33795;BME280;51430;52.242;21.118;2023-08-12T01:29:44;100951.66;;;14.17;84.50
33795;BME280;51430;52.242;21.118;2023-08-12T01:35:17;100948.91;;;14.09;85.50
33795;BME280;51430;52.242;21.118;2023-08-12T01:37:50;100951.73;;;14.06;86.01
33795;BME280;51430;52.242;21.118;2023-08-12T01:40:19;100953.17;;;14.06;85.91
33795;BME280;51430;52.242;21.118;2023-08-12T01:42:47;100954.86;;;14.02;85.96
33795;BME280;51430;52.242;21.118;2023-08-12T01:45:18;100954.20;;;14.00;86.20
33795;BME280;51430;52.242;21.118;2023-08-12T01:47:46;100951.35;;;13.96;86.43
33795;BME280;51430;52.242;21.118;2023-08-12T01:50:14;100947.82;;;13.94;86.53
33795;BME280;51430;52.242;21.118;2023-08-12T01:52:43;100948.90;;;13.91;86.76
33795;BME280;51430;52.242;21.118;2023-08-12T01:55:11;100948.26;;;13.91;86.82
33795;BME280;51430;52.242;21.118;2023-08-12T01:57:39;100951.55;;;13.89;87.17
33795;BME280;51430;52.242;21.118;2023-08-12T02:00:07;100951.14;;;13.85;87.22
33795;BME280;51430;52.242;21.118;2023-08-12T02:02:36;100952.67;;;13.84;87.49
33795;BME280;51430;52.242;21.118;2023-08-12T02:05:05;100955.54;;;13.83;87.77
33795;BME280;51430;52.242;21.118;2023-08-12T02:07:33;100956.38;;;13.81;87.67
33795;BME280;51430;52.242;21.118;2023-08-12T02:10:01;100952.20;;;13.79;87.68
33795;BME280;51430;52.242;21.118;2023-08-12T02:12:28;100954.06;;;13.77;87.72
33795;BME280;51430;52.242;21.118;2023-08-12T02:14:56;100953.55;;;13.75;87.79
33795;BME280;51430;52.242;21.118;2023-08-12T02:17:24;100953.37;;;13.71;88.03
33795;BME280;51430;52.242;21.118;2023-08-12T02:19:52;100953.00;;;13.69;88.31
33795;BME280;51430;52.242;21.118;2023-08-12T02:22:22;100957.30;;;13.68;88.42
33795;BME280;51430;52.242;21.118;2023-08-12T02:24:50;100953.87;;;13.64;88.72
33795;BME280;51430;52.242;21.118;2023-08-12T02:27:18;100953.62;;;13.63;88.50
33795;BME280;51430;52.242;21.118;2023-08-12T02:29:46;100949.96;;;13.60;88.75
33795;BME280;51430;52.242;21.118;2023-08-12T02:32:13;100949.34;;;13.61;88.72
33795;BME280;51430;52.242;21.118;2023-08-12T02:34:41;100949.91;;;13.59;88.54
33795;BME280;51430;52.242;21.118;2023-08-12T02:37:09;100952.95;;;13.56;88.67
33795;BME280;51430;52.242;21.118;2023-08-12T02:39:38;100954.90;;;13.53;88.94
33795;BME280;51430;52.242;21.118;2023-08-12T02:42:07;100957.06;;;13.53;88.60
33795;BME280;51430;52.242;21.118;2023-08-12T02:44:36;100954.70;;;13.49;88.59
33795;BME280;51430;52.242;21.118;2023-08-12T02:47:04;100953.32;;;13.49;88.77
33795;BME280;51430;52.242;21.118;2023-08-12T02:49:36;100952.52;;;13.48;88.90
33795;BME280;51430;52.242;21.118;2023-08-12T02:52:04;100954.84;;;13.48;88.90
33795;BME280;51430;52.242;21.118;2023-08-12T02:54:32;100958.80;;;13.44;89.00
33795;BME280;51430;52.242;21.118;2023-08-12T02:57:00;100967.40;;;13.39;88.97
33795;BME280;51430;52.242;21.118;2023-08-12T02:59:28;100969.29;;;13.36;89.03
33795;BME280;51430;52.242;21.118;2023-08-12T03:01:57;100971.59;;;13.31;89.17
33795;BME280;51430;52.242;21.118;2023-08-12T03:04:25;100972.19;;;13.30;89.13
33795;BME280;51430;52.242;21.118;2023-08-12T03:06:53;100975.20;;;13.27;89.28
33795;BME280;51430;52.242;21.118;2023-08-12T03:09:21;100977.30;;;13.23;89.54
33795;BME280;51430;52.242;21.118;2023-08-12T03:11:50;100980.96;;;13.21;89.71
33795;BME280;51430;52.242;21.118;2023-08-12T03:14:17;100979.62;;;13.22;89.81
33795;BME280;51430;52.242;21.118;2023-08-12T03:16:45;100986.99;;;13.19;89.95
33795;BME280;51430;52.242;21.118;2023-08-12T03:19:13;100989.79;;;13.15;90.10
33795;BME280;51430;52.242;21.118;2023-08-12T03:21:41;100987.55;;;13.12;90.23
33795;BME280;51430;52.242;21.118;2023-08-12T03:24:09;100985.30;;;13.12;90.34
33795;BME280;51430;52.242;21.118;2023-08-12T03:26:37;100986.36;;;13.12;90.58
33795;BME280;51430;52.242;21.118;2023-08-12T03:29:05;100985.81;;;13.12;90.53
33795;BME280;51430;52.242;21.118;2023-08-12T03:31:33;100989.58;;;13.09;90.70
33795;BME280;51430;52.242;21.118;2023-08-12T03:34:01;100986.02;;;13.07;90.91
33795;BME280;51430;52.242;21.118;2023-08-12T03:36:29;100987.78;;;13.07;90.85
33795;BME280;51430;52.242;21.118;2023-08-12T03:38:57;100992.84;;;13.07;90.93
33795;BME280;51430;52.242;21.118;2023-08-12T03:41:25;100993.44;;;13.11;91.02
33795;BME280;51430;52.242;21.118;2023-08-12T03:43:52;100995.02;;;13.18;90.83
33795;BME280;51430;52.242;21.118;2023-08-12T03:46:20;100991.82;;;13.20;91.05
33795;BME280;51430;52.242;21.118;2023-08-12T03:48:48;100991.50;;;13.25;91.11
33795;BME280;51430;52.242;21.118;2023-08-12T03:51:16;100993.56;;;13.30;91.01
33795;BME280;51430;52.242;21.118;2023-08-12T03:53:44;100991.90;;;13.31;90.98
33795;BME280;51430;52.242;21.118;2023-08-12T03:56:12;100994.45;;;13.34;90.81
33795;BME280;51430;52.242;21.118;2023-08-12T03:58:42;100995.98;;;13.39;90.68
33795;BME280;51430;52.242;21.118;2023-08-12T04:01:10;100997.93;;;13.43;90.67
33795;BME280;51430;52.242;21.118;2023-08-12T04:03:38;100998.50;;;13.47;90.59
33795;BME280;51430;52.242;21.118;2023-08-12T04:06:06;100998.73;;;13.51;90.60
33795;BME280;51430;52.242;21.118;2023-08-12T04:08:34;100996.90;;;13.56;90.59
33795;BME280;51430;52.242;21.118;2023-08-12T04:11:02;101001.25;;;13.61;90.62
33795;BME280;51430;52.242;21.118;2023-08-12T04:13:30;100996.13;;;13.64;90.63
33795;BME280;51430;52.242;21.118;2023-08-12T04:15:58;100998.63;;;13.70;90.55
33795;BME280;51430;52.242;21.118;2023-08-12T04:18:26;100998.33;;;13.76;90.35
33795;BME280;51430;52.242;21.118;2023-08-12T04:20:54;100994.83;;;13.83;90.33
33795;BME280;51430;52.242;21.118;2023-08-12T04:23:22;100992.72;;;13.91;90.70
33795;BME280;51430;52.242;21.118;2023-08-12T04:25:52;101001.35;;;14.00;90.70
33795;BME280;51430;52.242;21.118;2023-08-12T04:28:21;100997.96;;;14.07;90.61
33795;BME280;51430;52.242;21.118;2023-08-12T04:30:50;100995.55;;;14.17;90.25
33795;BME280;51430;52.242;21.118;2023-08-12T04:33:20;100996.61;;;14.26;90.03
33795;BME280;51430;52.242;21.118;2023-08-12T04:35:49;100995.73;;;14.34;89.85
33795;BME280;51430;52.242;21.118;2023-08-12T04:38:17;100997.09;;;14.42;89.69
33795;BME280;51430;52.242;21.118;2023-08-12T04:40:46;101002.08;;;14.49;89.71
33795;BME280;51430;52.242;21.118;2023-08-12T04:43:14;101002.08;;;14.57;89.67
33795;BME280;51430;52.242;21.118;2023-08-12T04:45:45;101004.54;;;14.68;89.48
33795;BME280;51430;52.242;21.118;2023-08-12T04:48:14;101004.71;;;14.78;89.32
33795;BME280;51430;52.242;21.118;2023-08-12T04:50:42;101004.36;;;14.89;89.22
33795;BME280;51430;52.242;21.118;2023-08-12T04:53:10;101000.93;;;14.98;89.03
33795;BME280;51430;52.242;21.118;2023-08-12T04:55:38;101000.02;;;15.07;88.40
33795;BME280;51430;52.242;21.118;2023-08-12T04:58:05;101000.13;;;15.16;88.13
33795;BME280;51430;52.242;21.118;2023-08-12T05:00:34;100995.05;;;15.24;87.41
33795;BME280;51430;52.242;21.118;2023-08-12T05:03:03;100996.73;;;15.33;86.57
33795;BME280;51430;52.242;21.118;2023-08-12T05:05:32;100997.31;;;15.42;86.23
33795;BME280;51430;52.242;21.118;2023-08-12T05:08:00;100995.20;;;15.51;85.64
33795;BME280;51430;52.242;21.118;2023-08-12T05:10:28;100987.45;;;15.60;85.01
33795;BME280;51430;52.242;21.118;2023-08-12T05:12:58;100989.23;;;15.69;84.96
33795;BME280;51430;52.242;21.118;2023-08-12T05:15:25;100985.98;;;15.80;84.50
33795;BME280;51430;52.242;21.118;2023-08-12T05:17:53;100988.63;;;15.92;83.30
33795;BME280;51430;52.242;21.118;2023-08-12T05:20:21;100987.88;;;16.02;80.87
33795;BME280;51430;52.242;21.118;2023-08-12T05:22:49;100984.27;;;16.11;80.38
33795;BME280;51430;52.242;21.118;2023-08-12T05:25:17;100985.59;;;16.24;79.04
33795;BME280;51430;52.242;21.118;2023-08-12T05:27:47;100983.76;;;16.36;78.40
33795;BME280;51430;52.242;21.118;2023-08-12T05:30:15;100983.14;;;16.49;78.04
33795;BME280;51430;52.242;21.118;2023-08-12T05:32:42;100983.22;;;16.64;77.16
33795;BME280;51430;52.242;21.118;2023-08-12T05:35:12;100986.23;;;16.76;77.27
33795;BME280;51430;52.242;21.118;2023-08-12T05:37:41;100985.50;;;16.92;76.66
33795;BME280;51430;52.242;21.118;2023-08-12T05:40:09;100984.31;;;17.08;75.60
33795;BME280;51430;52.242;21.118;2023-08-12T05:42:37;100983.67;;;17.28;75.28
33795;BME280;51430;52.242;21.118;2023-08-12T05:45:05;100980.31;;;17.53;74.86
33795;BME280;51430;52.242;21.118;2023-08-12T05:47:35;100982.84;;;17.81;74.31
33795;BME280;51430;52.242;21.118;2023-08-12T05:50:05;100985.83;;;18.19;73.48
33795;BME280;51430;52.242;21.118;2023-08-12T05:52:34;100988.84;;;18.63;72.24
33795;BME280;51430;52.242;21.118;2023-08-12T05:55:02;100984.16;;;19.06;70.51
33795;BME280;51430;52.242;21.118;2023-08-12T05:57:29;100982.77;;;19.54;68.70
33795;BME280;51430;52.242;21.118;2023-08-12T05:59:57;100986.85;;;19.96;67.26
33795;BME280;51430;52.242;21.118;2023-08-12T06:02:25;100979.10;;;20.36;65.79
33795;BME280;51430;52.242;21.118;2023-08-12T06:04:54;100981.88;;;20.73;63.67
33795;BME280;51430;52.242;21.118;2023-08-12T06:07:22;100983.23;;;20.92;62.71
33795;BME280;51430;52.242;21.118;2023-08-12T06:09:51;100981.73;;;21.17;62.32
33795;BME280;51430;52.242;21.118;2023-08-12T06:12:19;100981.62;;;21.46;61.97
33795;BME280;51430;52.242;21.118;2023-08-12T06:14:46;100979.67;;;21.79;60.90
33795;BME280;51430;52.242;21.118;2023-08-12T06:17:14;100978.83;;;22.02;60.14
33795;BME280;51430;52.242;21.118;2023-08-12T06:19:42;100982.73;;;22.23;58.13
33795;BME280;51430;52.242;21.118;2023-08-12T06:22:10;100986.08;;;22.46;58.18
33795;BME280;51430;52.242;21.118;2023-08-12T06:24:38;100985.83;;;22.65;56.98
33795;BME280;51430;52.242;21.118;2023-08-12T06:27:06;100990.69;;;22.86;56.07
33795;BME280;51430;52.242;21.118;2023-08-12T06:29:34;100990.58;;;23.04;55.01
33795;BME280;51430;52.242;21.118;2023-08-12T06:32:02;100991.67;;;23.03;54.64
33795;BME280;51430;52.242;21.118;2023-08-12T06:34:30;100996.65;;;23.02;54.33
33795;BME280;51430;52.242;21.118;2023-08-12T06:36:58;100996.08;;;22.98;53.71
33795;BME280;51430;52.242;21.118;2023-08-12T06:39:25;101001.70;;;23.01;54.08
33795;BME280;51430;52.242;21.118;2023-08-12T06:41:53;100999.33;;;23.08;53.96
33795;BME280;51430;52.242;21.118;2023-08-12T06:44:21;100999.42;;;23.16;53.60
33795;BME280;51430;52.242;21.118;2023-08-12T06:46:49;100994.04;;;23.27;54.52
33795;BME280;51430;52.242;21.118;2023-08-12T06:49:17;100993.51;;;23.42;54.78
33795;BME280;51430;52.242;21.118;2023-08-12T06:51:46;100999.15;;;23.56;54.47
33795;BME280;51430;52.242;21.118;2023-08-12T06:54:13;101000.05;;;23.69;52.60
33795;BME280;51430;52.242;21.118;2023-08-12T06:56:41;100998.55;;;23.85;52.71
33795;BME280;51430;52.242;21.118;2023-08-12T06:59:09;100999.81;;;24.03;52.96
33795;BME280;51430;52.242;21.118;2023-08-12T07:01:38;100999.98;;;24.22;52.64
33795;BME280;51430;52.242;21.118;2023-08-12T07:04:06;100996.27;;;24.39;50.28
33795;BME280;51430;52.242;21.118;2023-08-12T07:06:34;100994.15;;;24.56;49.76
33795;BME280;51430;52.242;21.118;2023-08-12T07:09:02;100995.80;;;24.70;47.96
33795;BME280;51430;52.242;21.118;2023-08-12T07:11:30;100992.61;;;24.80;48.22
33795;BME280;51430;52.242;21.118;2023-08-12T07:13:58;100994.47;;;24.94;47.94
33795;BME280;51430;52.242;21.118;2023-08-12T07:16:26;100998.82;;;25.16;47.35
33795;BME280;51430;52.242;21.118;2023-08-12T07:18:54;100998.79;;;25.33;43.91
33795;BME280;51430;52.242;21.118;2023-08-12T07:21:21;100997.98;;;25.50;43.50
33795;BME280;51430;52.242;21.118;2023-08-12T07:23:49;101000.16;;;25.77;43.24
33795;BME280;51430;52.242;21.118;2023-08-12T07:26:31;101002.39;;;26.13;41.72
33795;BME280;51430;52.242;21.118;2023-08-12T07:28:59;101004.52;;;26.47;39.90
33795;BME280;51430;52.242;21.118;2023-08-12T07:31:27;101007.08;;;26.80;39.13
33795;BME280;51430;52.242;21.118;2023-08-12T07:33:55;101004.31;;;27.06;35.12
33795;BME280;51430;52.242;21.118;2023-08-12T07:36:23;100996.87;;;27.19;36.19
33795;BME280;51430;52.242;21.118;2023-08-12T07:38:50;100993.73;;;27.33;38.08
33795;BME280;51430;52.242;21.118;2023-08-12T07:41:18;100993.89;;;27.51;37.46
33795;BME280;51430;52.242;21.118;2023-08-12T07:43:46;100994.96;;;27.74;38.94
33795;BME280;51430;52.242;21.118;2023-08-12T07:46:14;100989.94;;;28.01;36.87
33795;BME280;51430;52.242;21.118;2023-08-12T07:48:41;100991.50;;;28.20;35.69
33795;BME280;51430;52.242;21.118;2023-08-12T07:51:09;100990.79;;;28.42;34.61
33795;BME280;51430;52.242;21.118;2023-08-12T07:53:37;100989.42;;;28.57;34.08
33795;BME280;51430;52.242;21.118;2023-08-12T07:56:04;100988.48;;;28.62;34.16
33795;BME280;51430;52.242;21.118;2023-08-12T07:58:33;100986.02;;;28.71;34.95
33795;BME280;51430;52.242;21.118;2023-08-12T08:01:01;100985.64;;;28.92;35.26
33795;BME280;51430;52.242;21.118;2023-08-12T08:03:29;100982.36;;;29.22;35.96
33795;BME280;51430;52.242;21.118;2023-08-12T08:05:57;100983.41;;;29.61;35.33
33795;BME280;51430;52.242;21.118;2023-08-12T08:08:25;100985.96;;;29.88;32.27
33795;BME280;51430;52.242;21.118;2023-08-12T08:10:53;100984.64;;;30.24;32.61
33795;BME280;51430;52.242;21.118;2023-08-12T08:13:20;100981.84;;;30.64;32.43
33795;BME280;51430;52.242;21.118;2023-08-12T08:15:48;100987.03;;;31.05;31.70
33795;BME280;51430;52.242;21.118;2023-08-12T08:18:16;100982.83;;;31.26;31.29
33795;BME280;51430;52.242;21.118;2023-08-12T08:20:45;100986.52;;;31.03;29.07
33795;BME280;51430;52.242;21.118;2023-08-12T08:23:13;100980.08;;;30.55;29.49
33795;BME280;51430;52.242;21.118;2023-08-12T08:25:41;100979.88;;;30.45;29.21
33795;BME280;51430;52.242;21.118;2023-08-12T08:28:08;100975.20;;;30.50;29.27
33795;BME280;51430;52.242;21.118;2023-08-12T08:30:36;100973.81;;;30.57;28.86
33795;BME280;51430;52.242;21.118;2023-08-12T08:33:05;100966.96;;;30.45;28.87
33795;BME280;51430;52.242;21.118;2023-08-12T08:35:32;100971.88;;;30.75;30.02
33795;BME280;51430;52.242;21.118;2023-08-12T08:38:00;100972.00;;;31.32;29.61
33795;BME280;51430;52.242;21.118;2023-08-12T08:40:28;100970.95;;;31.80;28.69
33795;BME280;51430;52.242;21.118;2023-08-12T08:43:01;100969.52;;;32.22;28.61
33795;BME280;51430;52.242;21.118;2023-08-12T08:45:32;100970.62;;;32.74;27.98
33795;BME280;51430;52.242;21.118;2023-08-12T08:48:05;100971.56;;;33.17;27.16
33795;BME280;51430;52.242;21.118;2023-08-12T08:50:35;100973.31;;;33.17;26.30
33795;BME280;51430;52.242;21.118;2023-08-12T08:53:06;100969.74;;;32.74;26.73
33795;BME280;51430;52.242;21.118;2023-08-12T08:55:35;100966.17;;;32.71;26.98
33795;BME280;51430;52.242;21.118;2023-08-12T08:58:06;100966.98;;;32.74;26.50
33795;BME280;51430;52.242;21.118;2023-08-12T09:00:36;100968.42;;;32.66;26.47
33795;BME280;51430;52.242;21.118;2023-08-12T09:03:05;100969.20;;;32.77;26.40
33795;BME280;51430;52.242;21.118;2023-08-12T09:05:35;100965.09;;;32.96;26.04
33795;BME280;51430;52.242;21.118;2023-08-12T09:08:05;100964.84;;;33.20;26.22
33795;BME280;51430;52.242;21.118;2023-08-12T09:10:36;100957.94;;;33.37;26.29
33795;BME280;51430;52.242;21.118;2023-08-12T09:13:04;100952.64;;;33.62;25.90
33795;BME280;51430;52.242;21.118;2023-08-12T09:15:32;100953.30;;;33.75;25.39
33795;BME280;51430;52.242;21.118;2023-08-12T09:18:00;100946.31;;;33.97;26.33
33795;BME280;51430;52.242;21.118;2023-08-12T09:20:28;100951.61;;;34.52;26.20
33795;BME280;51430;52.242;21.118;2023-08-12T09:22:57;100953.36;;;34.95;25.30
33795;BME280;51430;52.242;21.118;2023-08-12T09:25:27;100952.25;;;35.30;25.73
33795;BME280;51430;52.242;21.118;2023-08-12T09:28:00;100948.45;;;35.69;25.76
33795;BME280;51430;52.242;21.118;2023-08-12T09:30:29;100950.54;;;35.92;23.60
33795;BME280;51430;52.242;21.118;2023-08-12T09:33:05;100948.48;;;35.97;23.86
33795;BME280;51430;52.242;21.118;2023-08-12T09:35:39;100944.76;;;36.25;24.39
33795;BME280;51430;52.242;21.118;2023-08-12T09:38:11;100949.71;;;36.53;23.83
33795;BME280;51430;52.242;21.118;2023-08-12T09:40:41;100948.48;;;36.89;23.69
33795;BME280;51430;52.242;21.118;2023-08-12T09:43:09;100949.83;;;37.11;22.84
33795;BME280;51430;52.242;21.118;2023-08-12T09:45:39;100946.00;;;37.15;22.94
33795;BME280;51430;52.242;21.118;2023-08-12T09:48:09;100946.20;;;37.26;22.78
33795;BME280;51430;52.242;21.118;2023-08-12T09:50:37;100942.75;;;37.38;22.41
33795;BME280;51430;52.242;21.118;2023-08-12T09:53:05;100942.80;;;37.38;23.11
33795;BME280;51430;52.242;21.118;2023-08-12T09:55:35;100945.20;;;37.09;22.73
33795;BME280;51430;52.242;21.118;2023-08-12T09:58:06;100945.73;;;36.45;22.81
33795;BME280;51430;52.242;21.118;2023-08-12T10:00:35;100946.10;;;35.51;23.73
33795;BME280;51430;52.242;21.118;2023-08-12T10:03:03;100946.28;;;34.89;24.11
33795;BME280;51430;52.242;21.118;2023-08-12T10:05:32;100937.00;;;34.91;24.19
33795;BME280;51430;52.242;21.118;2023-08-12T10:08:02;100931.15;;;34.87;24.32
33795;BME280;51430;52.242;21.118;2023-08-12T10:10:33;100925.34;;;34.55;24.98
33795;BME280;51430;52.242;21.118;2023-08-12T10:13:02;100925.38;;;35.15;24.77
33795;BME280;51430;52.242;21.118;2023-08-12T10:15:32;100922.80;;;35.44;24.16
33795;BME280;51430;52.242;21.118;2023-08-12T10:18:00;100914.80;;;35.81;23.86
33795;BME280;51430;52.242;21.118;2023-08-12T10:20:29;100915.95;;;35.30;24.22
33795;BME280;51430;52.242;21.118;2023-08-12T10:22:59;100908.35;;;35.86;24.23
33795;BME280;51430;52.242;21.118;2023-08-12T10:25:31;100906.39;;;36.06;23.72
33795;BME280;51430;52.242;21.118;2023-08-12T10:27:59;100904.50;;;35.57;24.11
33795;BME280;51430;52.242;21.118;2023-08-12T10:30:30;100906.00;;;35.48;24.00
33795;BME280;51430;52.242;21.118;2023-08-12T10:32:59;100903.86;;;35.60;24.03
33795;BME280;51430;52.242;21.118;2023-08-12T10:35:47;100899.34;;;35.70;23.99
33795;BME280;51430;52.242;21.118;2023-08-12T10:38:19;100900.25;;;36.51;24.04
33795;BME280;51430;52.242;21.118;2023-08-12T10:40:48;100906.90;;;36.99;22.50
33795;BME280;51430;52.242;21.118;2023-08-12T10:43:15;100904.21;;;37.12;23.14
33795;BME280;51430;52.242;21.118;2023-08-12T10:45:47;100901.54;;;35.54;23.97
33795;BME280;51430;52.242;21.118;2023-08-12T10:48:22;100901.06;;;35.55;24.18
33795;BME280;51430;52.242;21.118;2023-08-12T10:50:54;100898.42;;;35.70;23.76
33795;BME280;51430;52.242;21.118;2023-08-12T10:53:26;100894.35;;;35.53;23.43
33795;BME280;51430;52.242;21.118;2023-08-12T10:56:01;100888.73;;;35.72;24.25
33795;BME280;51430;52.242;21.118;2023-08-12T11:01:02;100881.04;;;37.56;23.73
33795;BME280;51430;52.242;21.118;2023-08-12T11:03:34;100881.84;;;36.99;22.55
33795;BME280;51430;52.242;21.118;2023-08-12T11:06:06;100874.98;;;36.17;23.39
33795;BME280;51430;52.242;21.118;2023-08-12T11:08:33;100876.02;;;35.04;24.20
33795;BME280;51430;52.242;21.118;2023-08-12T11:11:02;100872.66;;;34.90;24.88
33795;BME280;51430;52.242;21.118;2023-08-12T11:13:30;100872.09;;;34.93;24.83
33795;BME280;51430;52.242;21.118;2023-08-12T11:16:09;100868.93;;;35.20;24.38
33795;BME280;51430;52.242;21.118;2023-08-12T11:18:37;100866.00;;;35.81;24.19
33795;BME280;51430;52.242;21.118;2023-08-12T11:21:05;100859.86;;;35.84;23.86
33795;BME280;51430;52.242;21.118;2023-08-12T11:23:34;100859.45;;;36.60;23.94
33795;BME280;51430;52.242;21.118;2023-08-12T11:26:04;100860.40;;;37.04;22.93
33795;BME280;51430;52.242;21.118;2023-08-12T11:28:33;100861.38;;;36.68;23.40
33795;BME280;51430;52.242;21.118;2023-08-12T11:31:01;100861.19;;;37.35;23.43
33795;BME280;51430;52.242;21.118;2023-08-12T11:33:30;100863.33;;;38.31;22.66
33795;BME280;51430;52.242;21.118;2023-08-12T11:35:59;100862.56;;;39.10;21.64
33795;BME280;51430;52.242;21.118;2023-08-12T11:38:26;100866.50;;;38.83;21.68
33795;BME280;51430;52.242;21.118;2023-08-12T11:40:54;100863.79;;;38.93;21.64
33795;BME280;51430;52.242;21.118;2023-08-12T11:43:22;100856.08;;;38.36;21.72
33795;BME280;51430;52.242;21.118;2023-08-12T11:45:50;100854.48;;;37.99;22.68
33795;BME280;51430;52.242;21.118;2023-08-12T11:48:18;100851.86;;;38.40;22.32
33795;BME280;51430;52.242;21.118;2023-08-12T11:50:46;100853.34;;;38.58;22.11
33795;BME280;51430;52.242;21.118;2023-08-12T11:53:14;100843.73;;;37.14;22.90
33795;BME280;51430;52.242;21.118;2023-08-12T11:55:42;100835.42;;;35.87;24.00
33795;BME280;51430;52.242;21.118;2023-08-12T11:58:13;100835.96;;;35.19;24.60
33795;BME280;51430;52.242;21.118;2023-08-12T12:00:41;100837.70;;;35.39;24.37
33795;BME280;51430;52.242;21.118;2023-08-12T12:03:09;100829.09;;;35.53;24.22
33795;BME280;51430;52.242;21.118;2023-08-12T12:05:37;100828.59;;;35.23;24.43
33795;BME280;51430;52.242;21.118;2023-08-12T12:08:05;100827.77;;;35.66;24.84
33795;BME280;51430;52.242;21.118;2023-08-12T12:10:36;100826.48;;;36.33;23.86
33795;BME280;51430;52.242;21.118;2023-08-12T12:13:05;100827.11;;;36.70;23.75
33795;BME280;51430;52.242;21.118;2023-08-12T12:15:41;100829.15;;;37.42;23.55
33795;BME280;51430;52.242;21.118;2023-08-12T12:18:13;100826.53;;;37.16;22.95
33795;BME280;51430;52.242;21.118;2023-08-12T12:20:57;100822.73;;;37.28;23.05
33795;BME280;51430;52.242;21.118;2023-08-12T12:23:30;100820.70;;;37.55;22.55
33795;BME280;51430;52.242;21.118;2023-08-12T12:25:59;100821.12;;;38.39;22.30
33795;BME280;51430;52.242;21.118;2023-08-12T12:28:28;100816.70;;;39.23;22.05
33795;BME280;51430;52.242;21.118;2023-08-12T12:30:55;100814.25;;;39.83;21.89
33795;BME280;51430;52.242;21.118;2023-08-12T12:33:23;100816.05;;;40.55;21.74
33795;BME280;51430;52.242;21.118;2023-08-12T12:35:51;100815.25;;;41.38;21.36
33795;BME280;51430;52.242;21.118;2023-08-12T12:38:26;100820.91;;;41.01;20.34
33795;BME280;51430;52.242;21.118;2023-08-12T12:40:54;100815.48;;;38.97;21.48
33795;BME280;51430;52.242;21.118;2023-08-12T12:43:22;100808.21;;;37.39;22.66
33795;BME280;51430;52.242;21.118;2023-08-12T12:45:50;100805.67;;;37.94;22.90
33795;BME280;51430;52.242;21.118;2023-08-12T12:48:18;100800.60;;;38.70;21.82
33795;BME280;51430;52.242;21.118;2023-08-12T12:50:45;100794.82;;;39.58;22.05
33795;BME280;51430;52.242;21.118;2023-08-12T12:53:13;100796.48;;;40.47;22.06
33795;BME280;51430;52.242;21.118;2023-08-12T12:55:41;100790.71;;;41.03;21.23